Main page
METAR-TAF:

METAR-TAF

Airports :

Badajoz Airport

Badajoz, Spain

latitude: 38-53N, longitude: 006-49W, elevation: 185 m

Current weather observation

The report was made 28 minutes ago, at 06:00 UTC
Wind 16 kt from the West
Temperature 9°C
Humidity 93%
Pressure 1017 hPa
Visibility 10 km or more
Scattered clouds at a height of 1500 ft

METAR: LEBZ 230600Z 26016KT 9999 SCT015 09/08 Q1017

Time: 07:28 (06:28 UTC)

Forecast

The report was made 1 hour and 28 minutes ago, at 05:00 UTC
Forecast valid from 23 at 06 UTC to 24 at 06 UTC
Wind 10 kt from the West
Visibility 10 km or more
Few clouds at a height of 2000 ft
Scattered clouds at a height of 3000 ft
Temporary
from 23 at 10 UTC to 23 at 18 UTC
Wind 16 kt from the West/Northwest with gusts up to 28 kt

TAF: LEBZ 230500Z 2306/2406 28010KT 9999 FEW020 SCT030 TX16/2315Z TN07/2406Z TEMPO 2310/2318 29016G28KT

Weather observations and forecasts of more than 4000 airports (METAR and TAF reports).

The available stations are represented by yellow and red dots on the map.

Hover mouse over dot to see the name of the station.

Then click to see weather observations and forecasts.

To change the map : click on the green buttons with a black cross to zoom in, on the green button with a dash to zoom out, or on the green arrows for adjacent maps.


METAR-TAF: